Time;durP1;ratioP1;P1;durP2;ratioP2;P2;SDS_P1;SDS_P2;PMS_P1;PMS_P2;Temp;Humidity;BMP_temperature;BMP_pressure;BME280_temperature;BME280_humidity;BME280_pressure;Samples;Min_cycle;Max_cycle;Signal;HPM_P1;HPM_P2
2022/04/14 00:02:10;;;;;;;14.95;13.68;;;;;;;;;;5064650;28;20094;-71
2022/04/14 00:04:36;;;;;;;15.45;14.00;;;;;;;;;;5067536;28;20801;-72
2022/04/14 00:07:03;;;;;;;14.32;13.10;;;;;;;;;;5060786;28;20441;-72
2022/04/14 00:09:28;;;;;;;15.65;14.25;;;;;;;;;;5051697;28;20167;-72
2022/04/14 00:11:55;;;;;;;16.00;14.52;;;;;;;;;;5062536;28;20060;-72
2022/04/14 00:14:21;;;;;;;15.82;14.40;;;;;;;;;;5067539;28;20662;-72
2022/04/14 00:16:47;;;;;;;15.65;14.05;;;;;;;;;;5058052;28;20513;-72
2022/04/14 00:19:13;;;;;;;15.15;13.88;;;;;;;;;;5064609;28;20517;-72
2022/04/14 00:21:39;;;;;;;16.38;15.07;;;;;;;;;;5060459;28;20686;-72
2022/04/14 00:24:05;;;;;;;15.57;14.10;;;;;;;;;;5045143;28;20036;-72
2022/04/14 00:26:30;;;;;;;16.30;14.60;;;;;;;;;;5064695;28;20502;-72
2022/04/14 00:28:56;;;;;;;15.75;14.38;;;;;;;;;;5061764;28;20037;-72
2022/04/14 00:31:22;;;;;;;15.98;14.48;;;;;;;;;;5033349;28;20045;-72
2022/04/14 00:33:47;;;;;;;16.33;14.50;;;;;;;;;;5047972;28;20056;-72
2022/04/14 00:36:13;;;;;;;14.98;13.88;;;;;;;;;;5046773;28;20048;-72
2022/04/14 00:38:39;;;;;;;15.45;14.20;;;;;;;;;;5046408;28;20052;-72
2022/04/14 00:41:04;;;;;;;16.05;14.63;;;;;;;;;;5059107;28;20045;-72
2022/04/14 00:43:32;;;;;;;15.80;14.38;;;;;;;;;;5057292;28;20044;-72
2022/04/14 00:46:02;;;;;;;15.55;14.27;;;;;;;;;;5067006;28;20041;-72
2022/04/14 00:48:28;;;;;;;16.25;14.63;;;;;;;;;;5046845;28;20056;-72
2022/04/14 00:50:55;;;;;;;15.48;14.07;;;;;;;;;;5048317;28;20044;-71
2022/04/14 00:53:22;;;;;;;16.02;14.38;;;;;;;;;;5067035;28;20368;-72
2022/04/14 00:55:51;;;;;;;16.80;15.25;;;;;;;;;;5059249;28;20372;-72
2022/04/14 00:58:18;;;;;;;17.30;15.50;;;;;;;;;;5066074;28;20040;-73
2022/04/14 01:00:44;;;;;;;18.38;15.90;;;;;;;;;;5052805;28;20036;-72
2022/04/14 01:03:10;;;;;;;17.05;15.63;;;;;;;;;;5070525;28;20032;-72
2022/04/14 01:05:37;;;;;;;17.42;15.68;;;;;;;;;;5064947;28;20044;-72
2022/04/14 01:08:05;;;;;;;16.08;14.77;;;;;;;;;;5065104;28;20059;-72
2022/04/14 01:10:32;;;;;;;16.85;15.30;;;;;;;;;;5070257;28;20111;-72
2022/04/14 01:12:57;;;;;;;17.50;15.73;;;;;;;;;;5067286;28;20098;-72
2022/04/14 01:15:23;;;;;;;16.17;14.80;;;;;;;;;;5065186;28;20032;-72
2022/04/14 01:17:48;;;;;;;18.80;14.80;;;;;;;;;;5053065;28;20048;-73
2022/04/14 01:20:14;;;;;;;16.67;15.32;;;;;;;;;;5069926;28;20078;-72
2022/04/14 01:22:47;;;;;;;17.75;15.85;;;;;;;;;;5047827;28;20123;-72
2022/04/14 01:25:13;;;;;;;17.10;15.52;;;;;;;;;;5058103;28;20448;-72
2022/04/14 01:27:39;;;;;;;16.17;14.80;;;;;;;;;;5064599;28;20063;-72
2022/04/14 01:30:05;;;;;;;16.83;15.23;;;;;;;;;;5066664;28;20032;-72
2022/04/14 01:32:30;;;;;;;16.50;14.98;;;;;;;;;;5058526;28;20036;-72
2022/04/14 01:34:56;;;;;;;17.05;15.25;;;;;;;;;;5050504;28;20040;-72
2022/04/14 01:37:22;;;;;;;16.92;15.27;;;;;;;;;;5067270;28;20028;-72
2022/04/14 01:39:47;;;;;;;17.70;15.80;;;;;;;;;;5065770;28;20028;-72
2022/04/14 01:42:13;;;;;;;17.27;15.63;;;;;;;;;;5069542;28;20596;-72
2022/04/14 01:44:39;;;;;;;18.30;16.65;;;;;;;;;;5069908;28;20040;-72
2022/04/14 01:47:05;;;;;;;17.90;15.85;;;;;;;;;;5031978;28;20032;-72
2022/04/14 01:49:31;;;;;;;17.40;15.88;;;;;;;;;;5050199;28;20472;-72
2022/04/14 01:51:57;;;;;;;17.52;15.70;;;;;;;;;;5094704;22;20050;-76
2022/04/14 01:54:22;;;;;;;18.40;16.50;;;;;;;;;;5104233;28;20036;-76
2022/04/14 01:56:49;;;;;;;17.73;16.35;;;;;;;;;;5095273;28;20125;-75
2022/04/14 01:59:15;;;;;;;22.17;16.02;;;;;;;;;;5102725;28;20097;-76
2022/04/14 02:01:40;;;;;;;16.27;14.73;;;;;;;;;;5100980;28;20036;-76
2022/04/14 02:04:07;;;;;;;16.27;14.60;;;;;;;;;;5097142;28;20028;-76
2022/04/14 02:06:34;;;;;;;15.80;14.32;;;;;;;;;;5096001;28;20096;-76
2022/04/14 02:09:00;;;;;;;16.58;15.15;;;;;;;;;;5107669;28;20026;-75
2022/04/14 02:11:25;;;;;;;17.08;15.43;;;;;;;;;;5104530;28;20039;-75
2022/04/14 02:13:51;;;;;;;16.48;15.07;;;;;;;;;;5109660;28;20031;-76
2022/04/14 02:16:17;;;;;;;18.90;16.08;;;;;;;;;;5088147;28;20117;-76
2022/04/14 02:18:45;;;;;;;17.93;16.43;;;;;;;;;;5106332;28;20035;-75
2022/04/14 02:21:11;;;;;;;17.40;15.88;;;;;;;;;;5089835;28;20040;-75
2022/04/14 02:23:37;;;;;;;17.50;15.70;;;;;;;;;;5101702;28;20131;-76
2022/04/14 02:26:02;;;;;;;17.23;15.65;;;;;;;;;;5101485;28;20036;-76
2022/04/14 02:28:28;;;;;;;18.38;16.38;;;;;;;;;;5104002;28;20027;-75
2022/04/14 02:30:54;;;;;;;17.35;15.93;;;;;;;;;;5097661;28;20036;-76
2022/04/14 02:33:19;;;;;;;18.50;16.77;;;;;;;;;;5109331;28;20665;-76
2022/04/14 02:35:46;;;;;;;17.80;16.30;;;;;;;;;;5105646;28;20040;-76
2022/04/14 02:38:13;;;;;;;17.45;15.18;;;;;;;;;;5102649;28;20126;-76
2022/04/14 02:40:38;;;;;;;19.25;16.30;;;;;;;;;;5092820;28;20050;-76
2022/04/14 02:43:04;;;;;;;17.30;15.85;;;;;;;;;;5084070;28;20047;-75
2022/04/14 02:45:30;;;;;;;18.98;17.13;;;;;;;;;;5094700;28;20043;-76
2022/04/14 02:47:56;;;;;;;17.52;15.70;;;;;;;;;;5096312;28;20023;-76
2022/04/14 02:50:22;;;;;;;18.40;16.58;;;;;;;;;;5077207;28;20046;-75
2022/04/14 02:52:49;;;;;;;16.25;14.80;;;;;;;;;;5109202;28;20672;-76
2022/04/14 02:55:16;;;;;;;16.52;15.23;;;;;;;;;;5087671;28;20575;-76
2022/04/14 02:57:42;;;;;;;16.95;15.38;;;;;;;;;;5089173;28;20039;-75
2022/04/14 03:00:12;;;;;;;17.10;15.55;;;;;;;;;;5109074;28;20047;-76
2022/04/14 03:02:38;;;;;;;16.58;15.10;;;;;;;;;;5097733;28;20019;-76
2022/04/14 03:05:05;;;;;;;18.08;16.30;;;;;;;;;;5094780;28;20510;-75
2022/04/14 03:07:31;;;;;;;16.50;15.15;;;;;;;;;;5092957;28;20505;-75
2022/04/14 03:09:56;;;;;;;18.08;16.42;;;;;;;;;;5109510;28;20382;-76
2022/04/14 03:12:22;;;;;;;16.77;15.50;;;;;;;;;;5078102;28;20126;-76
2022/04/14 03:14:48;;;;;;;17.52;15.82;;;;;;;;;;5102286;28;20111;-76
2022/04/14 03:17:14;;;;;;;16.33;15.02;;;;;;;;;;5107514;28;20028;-75
2022/04/14 03:19:39;;;;;;;16.52;15.20;;;;;;;;;;5109107;28;20035;-76
2022/04/14 03:22:05;;;;;;;18.45;15.48;;;;;;;;;;5106510;28;20047;-76
2022/04/14 03:24:31;;;;;;;20.45;15.50;;;;;;;;;;5090276;28;20023;-76
2022/04/14 03:26:57;;;;;;;16.55;15.05;;;;;;;;;;5089479;28;20040;-76
2022/04/14 03:29:22;;;;;;;21.60;16.38;;;;;;;;;;5101650;28;20024;-76
2022/04/14 03:31:48;;;;;;;16.67;14.90;;;;;;;;;;5087930;28;20032;-75
2022/04/14 03:34:13;;;;;;;16.83;15.25;;;;;;;;;;5070600;28;20051;-76
2022/04/14 03:36:39;;;;;;;16.30;15.02;;;;;;;;;;5107473;28;20024;-76
2022/04/14 03:39:05;;;;;;;16.63;15.13;;;;;;;;;;5089734;28;20039;-76
2022/04/14 03:41:30;;;;;;;16.15;14.55;;;;;;;;;;5091338;28;20657;-75
2022/04/14 03:43:57;;;;;;;16.58;15.05;;;;;;;;;;5090597;28;20722;-77
2022/04/14 03:46:23;;;;;;;17.10;15.50;;;;;;;;;;5094685;28;20179;-76
2022/04/14 03:48:49;;;;;;;16.65;14.98;;;;;;;;;;5094135;28;20110;-76
2022/04/14 03:51:14;;;;;;;16.88;15.23;;;;;;;;;;5106964;28;20498;-76
2022/04/14 03:53:44;;;;;;;17.58;15.38;;;;;;;;;;5107244;28;20027;-76
2022/04/14 03:56:10;;;;;;;;;;;;;;;;;;5100163;28;20491;-76
2022/04/14 03:58:36;;;;;;;16.90;15.27;;;;;;;;;;5097540;28;19916;-75
2022/04/14 04:01:02;;;;;;;20.15;15.57;;;;;;;;;;5072809;28;20042;-75
2022/04/14 04:03:28;;;;;;;18.00;16.38;;;;;;;;;;5101035;28;20104;-76
2022/04/14 04:05:54;;;;;;;17.17;15.77;;;;;;;;;;5105449;28;20134;-76
2022/04/14 04:08:20;;;;;;;17.20;15.50;;;;;;;;;;5105689;28;20105;-76
2022/04/14 04:10:46;;;;;;;16.58;15.27;;;;;;;;;;5107497;28;20047;-75
2022/04/14 04:13:12;;;;;;;17.65;16.15;;;;;;;;;;5102023;28;20052;-77
2022/04/14 04:15:37;;;;;;;17.23;15.43;;;;;;;;;;5095495;28;20027;-75
2022/04/14 04:18:05;;;;;;;18.40;16.60;;;;;;;;;;5101518;28;20028;-76
2022/04/14 04:20:34;;;;;;;18.02;16.23;;;;;;;;;;5106318;28;20071;-75
2022/04/14 04:23:03;;;;;;;18.33;16.50;;;;;;;;;;5101881;28;20036;-77
2022/04/14 04:25:29;;;;;;;;;;;;;;;;;;5092983;28;20032;-76
2022/04/14 04:27:54;;;;;;;18.23;16.50;;;;;;;;;;5092663;28;20394;-76
2022/04/14 04:30:20;;;;;;;17.98;16.33;;;;;;;;;;5096404;28;20032;-76
2022/04/14 04:32:46;;;;;;;18.23;16.30;;;;;;;;;;5110056;28;20665;-76
2022/04/14 04:35:12;;;;;;;18.70;16.90;;;;;;;;;;5093837;28;20043;-77
2022/04/14 04:37:38;;;;;;;18.05;16.23;;;;;;;;;;5090273;28;20565;-76
2022/04/14 04:40:05;;;;;;;18.23;16.52;;;;;;;;;;5096979;28;20187;-76
2022/04/14 04:42:31;;;;;;;18.17;16.23;;;;;;;;;;5112017;28;20105;-76
2022/04/14 04:44:56;;;;;;;17.88;16.10;;;;;;;;;;5108352;28;20130;-77
2022/04/14 04:47:22;;;;;;;17.17;15.63;;;;;;;;;;5076026;28;20474;-76
2022/04/14 04:49:48;;;;;;;16.95;15.35;;;;;;;;;;5111176;28;20094;-77
2022/04/14 04:52:15;;;;;;;16.63;15.23;;;;;;;;;;5111683;28;20067;-77
2022/04/14 04:54:40;;;;;;;17.00;15.50;;;;;;;;;;5094482;28;20051;-77
2022/04/14 04:57:06;;;;;;;19.30;17.13;;;;;;;;;;5105984;28;20040;-77
2022/04/14 04:59:33;;;;;;;18.23;16.33;;;;;;;;;;5108828;28;20118;-77
2022/04/14 05:01:59;;;;;;;17.67;16.05;;;;;;;;;;5109714;28;20092;-77
2022/04/14 05:04:25;;;;;;;18.15;16.27;;;;;;;;;;5100614;28;20040;-77
2022/04/14 05:06:50;;;;;;;20.38;16.58;;;;;;;;;;5111210;28;20031;-77
2022/04/14 05:09:16;;;;;;;16.65;15.23;;;;;;;;;;5093202;28;20771;-77
2022/04/14 05:11:42;;;;;;;18.92;15.45;;;;;;;;;;5090675;28;20503;-76
2022/04/14 05:14:09;;;;;;;16.92;15.20;;;;;;;;;;5089901;28;20044;-77
2022/04/14 05:16:35;;;;;;;18.25;14.95;;;;;;;;;;5091474;28;20051;-77
2022/04/14 05:19:00;;;;;;;17.85;16.17;;;;;;;;;;5094871;28;20023;-77
2022/04/14 05:21:26;;;;;;;17.00;15.43;;;;;;;;;;5095663;28;20036;-77
2022/04/14 05:23:52;;;;;;;16.73;15.15;;;;;;;;;;5096633;28;20523;-77
2022/04/14 05:26:17;;;;;;;17.35;15.48;;;;;;;;;;5109607;28;20047;-77
2022/04/14 05:28:43;;;;;;;17.08;15.50;;;;;;;;;;5111165;28;20039;-77
2022/04/14 05:31:09;;;;;;;17.48;15.70;;;;;;;;;;5088025;28;20398;-77
2022/04/14 05:33:35;;;;;;;17.67;15.57;;;;;;;;;;5094384;28;20410;-77
2022/04/14 05:36:00;;;;;;;16.13;14.63;;;;;;;;;;5090963;28;20113;-77
2022/04/14 05:38:27;;;;;;;16.75;15.35;;;;;;;;;;5090678;28;20059;-77
2022/04/14 05:40:53;;;;;;;17.17;15.57;;;;;;;;;;5091724;28;20032;-78
2022/04/14 05:43:24;;;;;;;16.88;15.38;;;;;;;;;;5106165;28;20063;-76
2022/04/14 05:45:50;;;;;;;16.35;14.85;;;;;;;;;;5111694;28;20031;-76
2022/04/14 05:48:17;;;;;;;16.73;15.30;;;;;;;;;;5091044;28;20043;-76
2022/04/14 05:50:44;;;;;;;16.85;15.32;;;;;;;;;;5089860;28;20706;-77
2022/04/14 05:53:12;;;;;;;17.05;14.98;;;;;;;;;;5091333;28;20039;-76
2022/04/14 05:55:39;;;;;;;18.42;16.48;;;;;;;;;;5101367;28;20111;-77
2022/04/14 05:58:06;;;;;;;17.55;15.95;;;;;;;;;;5088627;28;20044;-77
2022/04/14 06:00:33;;;;;;;20.17;15.05;;;;;;;;;;5098215;28;20559;-76
2022/04/14 06:02:59;;;;;;;16.98;14.85;;;;;;;;;;5110166;28;20040;-77
2022/04/14 06:05:35;;;;;;;17.02;15.57;;;;;;;;;;5110984;28;20035;-76
2022/04/14 06:08:00;;;;;;;15.32;14.02;;;;;;;;;;5102170;28;20063;-76
2022/04/14 06:10:27;;;;;;;17.73;15.93;;;;;;;;;;5092257;28;20059;-76
2022/04/14 06:12:56;;;;;;;16.23;14.73;;;;;;;;;;5110997;28;20578;-77
2022/04/14 06:15:22;;;;;;;17.85;16.05;;;;;;;;;;5075732;28;20472;-77
2022/04/14 06:17:49;;;;;;;20.50;15.25;;;;;;;;;;5094920;28;20085;-76
2022/04/14 06:20:15;;;;;;;16.00;14.48;;;;;;;;;;5091372;28;20129;-76
2022/04/14 06:22:41;;;;;;;19.95;15.18;;;;;;;;;;5090265;28;20651;-76
2022/04/14 06:25:12;;;;;;;16.80;15.27;;;;;;;;;;5094085;28;20125;-77
2022/04/14 06:27:45;;;;;;;16.50;14.88;;;;;;;;;;5092740;28;20068;-83
2022/04/14 06:30:14;;;;;;;14.80;13.40;;;;;;;;;;5092058;28;20135;-76
2022/04/14 06:32:40;;;;;;;16.80;15.05;;;;;;;;;;5110260;28;20039;-77
2022/04/14 06:35:07;;;;;;;16.63;14.68;;;;;;;;;;5099312;28;20039;-76
2022/04/14 06:37:36;;;;;;;15.18;13.68;;;;;;;;;;5093442;28;20031;-77
2022/04/14 06:40:02;;;;;;;16.50;14.63;;;;;;;;;;5089649;28;20040;-77
2022/04/14 06:42:28;;;;;;;15.63;14.32;;;;;;;;;;5089520;28;20032;-76
2022/04/14 06:44:59;;;;;;;15.77;14.38;;;;;;;;;;5106515;28;20032;-76
2022/04/14 06:47:26;;;;;;;15.82;14.23;;;;;;;;;;5109809;28;20035;-76
2022/04/14 06:49:51;;;;;;;15.88;13.98;;;;;;;;;;5074716;28;20042;-76
2022/04/14 06:52:17;;;;;;;15.07;13.55;;;;;;;;;;5104890;28;20040;-77
2022/04/14 06:54:43;;;;;;;15.13;13.57;;;;;;;;;;5102937;28;20067;-76
2022/04/14 06:57:09;;;;;;;16.08;13.65;;;;;;;;;;5091191;28;20043;-76
2022/04/14 06:59:35;;;;;;;20.10;13.98;;;;;;;;;;5081593;28;20044;-77
2022/04/14 07:02:01;;;;;;;14.63;13.20;;;;;;;;;;5108512;28;20031;-77
2022/04/14 07:04:27;;;;;;;16.30;14.90;;;;;;;;;;5109003;28;20042;-76
2022/04/14 07:06:54;;;;;;;16.77;14.32;;;;;;;;;;5089121;28;20038;-76
2022/04/14 07:09:20;;;;;;;15.88;14.30;;;;;;;;;;5095297;28;20035;-77
2022/04/14 07:11:46;;;;;;;15.75;14.20;;;;;;;;;;5090678;22;20590;-74
2022/04/14 07:14:11;;;;;;;15.15;13.25;;;;;;;;;;5068174;28;20124;-74
2022/04/14 07:16:37;;;;;;;15.05;13.70;;;;;;;;;;5068609;28;20048;-74
2022/04/14 07:19:02;;;;;;;20.25;14.75;;;;;;;;;;5068353;28;20037;-73
2022/04/14 07:21:28;;;;;;;15.65;14.38;;;;;;;;;;5075325;28;20044;-73
2022/04/14 07:23:53;;;;;;;20.00;15.35;;;;;;;;;;5074205;28;20046;-73
2022/04/14 07:26:19;;;;;;;21.55;17.90;;;;;;;;;;5052782;28;20036;-74
2022/04/14 07:28:44;;;;;;;24.73;17.70;;;;;;;;;;5068353;28;20036;-74
2022/04/14 07:31:10;;;;;;;29.92;21.70;;;;;;;;;;5061517;28;20050;-74
2022/04/14 07:33:36;;;;;;;33.38;22.70;;;;;;;;;;5080895;28;20039;-73
2022/04/14 07:36:03;;;;;;;29.63;17.67;;;;;;;;;;5087937;28;20516;-73
2022/04/14 07:38:28;;;;;;;26.95;18.98;;;;;;;;;;5085291;28;20032;-73
2022/04/14 07:40:56;;;;;;;20.77;18.63;;;;;;;;;;5052347;28;20383;-73
2022/04/14 07:43:22;;;;;;;22.98;18.60;;;;;;;;;;5049731;28;20311;-72
2022/04/14 07:45:47;;;;;;;20.75;18.65;;;;;;;;;;5068038;28;20462;-72
2022/04/14 07:48:13;;;;;;;22.30;19.48;;;;;;;;;;5076051;28;20028;-75
2022/04/14 07:50:39;;;;;;;20.40;18.25;;;;;;;;;;5068164;28;20043;-72
2022/04/14 07:53:04;;;;;;;21.30;19.13;;;;;;;;;;5067701;28;20036;-72
2022/04/14 07:55:32;;;;;;;20.38;18.25;;;;;;;;;;5070582;28;20050;-73
2022/04/14 07:58:10;;;;;;;26.20;20.13;;;;;;;;;;5082551;28;20051;-72
2022/04/14 08:00:37;;;;;;;27.10;22.40;;;;;;;;;;5083852;28;20040;-73
2022/04/14 08:03:04;;;;;;;30.38;23.35;;;;;;;;;;5073848;28;20433;-73
2022/04/14 08:05:31;;;;;;;24.00;21.52;;;;;;;;;;5083825;28;20046;-72
2022/04/14 08:07:57;;;;;;;28.30;23.50;;;;;;;;;;5058912;28;20458;-72
2022/04/14 08:10:23;;;;;;;31.00;22.08;;;;;;;;;;5069723;28;20134;-73
2022/04/14 08:12:49;;;;;;;27.52;22.02;;;;;;;;;;5080318;28;20035;-73
2022/04/14 08:15:15;;;;;;;25.15;22.10;;;;;;;;;;5084918;28;20037;-72
2022/04/14 08:17:42;;;;;;;27.15;23.05;;;;;;;;;;5072398;28;20128;-74
2022/04/14 08:20:09;;;;;;;26.70;22.80;;;;;;;;;;5051423;28;20048;-73
2022/04/14 08:23:04;;;;;;;30.80;22.42;;;;;;;;;;5082394;28;20032;-72
2022/04/14 08:25:32;;;;;;;25.25;22.58;;;;;;;;;;4982632;28;20039;-72
2022/04/14 08:27:59;;;;;;;25.83;22.95;;;;;;;;;;4987203;28;20030;-73
2022/04/14 08:30:26;;;;;;;24.65;22.02;;;;;;;;;;4991656;28;20054;-74
2022/04/14 08:32:53;;;;;;;24.23;21.73;;;;;;;;;;4968290;28;20045;-72
2022/04/14 08:35:20;;;;;;;26.25;23.38;;;;;;;;;;4974345;28;20118;-72
2022/04/14 08:37:46;;;;;;;26.15;23.13;;;;;;;;;;4981576;28;20046;-73
2022/04/14 08:40:15;;;;;;;24.90;22.23;;;;;;;;;;4979221;28;20042;-72
2022/04/14 08:42:53;;;;;;;26.65;21.98;;;;;;;;;;4968663;28;20441;-72
2022/04/14 08:45:22;;;;;;;23.55;21.10;;;;;;;;;;4987371;28;20125;-73
2022/04/14 08:47:49;;;;;;;;;;;;;;;;;;4983722;28;20080;-72
2022/04/14 08:50:17;;;;;;;25.98;22.70;;;;;;;;;;4990234;28;19925;-73
2022/04/14 08:52:43;;;;;;;31.35;24.50;;;;;;;;;;4973819;28;20058;-72
2022/04/14 08:55:11;;;;;;;25.92;23.17;;;;;;;;;;4983196;28;20131;-73
2022/04/14 08:57:41;;;;;;;26.63;23.15;;;;;;;;;;4985558;28;20430;-73
2022/04/14 09:00:08;;;;;;;29.85;24.73;;;;;;;;;;4984588;28;20050;-73
2022/04/14 09:02:34;;;;;;;28.00;23.90;;;;;;;;;;5061116;28;20052;-73
2022/04/14 09:05:01;;;;;;;30.05;24.17;;;;;;;;;;5067687;28;20119;-73
2022/04/14 09:07:27;;;;;;;24.92;21.27;;;;;;;;;;5073577;28;20371;-73
2022/04/14 09:09:53;;;;;;;25.35;21.13;;;;;;;;;;5086119;28;20040;-73
2022/04/14 09:12:19;;;;;;;24.30;21.88;;;;;;;;;;5086454;28;20041;-74
2022/04/14 09:14:46;;;;;;;27.95;23.38;;;;;;;;;;5057466;28;20507;-74
2022/04/14 09:17:12;;;;;;;26.20;20.55;;;;;;;;;;5087957;28;20078;-74
2022/04/14 09:19:38;;;;;;;30.52;22.42;;;;;;;;;;5089442;28;20036;-73
2022/04/14 09:22:13;;;;;;;24.77;20.67;;;;;;;;;;5087467;28;20043;-73
2022/04/14 09:24:39;;;;;;;22.63;20.40;;;;;;;;;;5082899;28;20107;-74
2022/04/14 09:27:05;;;;;;;26.08;20.55;;;;;;;;;;5044715;28;20135;-74
2022/04/14 09:29:31;;;;;;;24.38;21.85;;;;;;;;;;5090530;28;20039;-73
2022/04/14 09:31:56;;;;;;;26.60;22.83;;;;;;;;;;5086874;28;20786;-73
2022/04/14 09:34:48;;;;;;;28.02;22.45;;;;;;;;;;5060965;28;20037;-73
2022/04/14 09:37:15;;;;;;;26.55;21.75;;;;;;;;;;5084797;28;20427;-74
2022/04/14 09:40:09;;;;;;;24.83;20.58;;;;;;;;;;5089813;28;20047;-73
2022/04/14 09:42:37;;;;;;;22.67;20.27;;;;;;;;;;5044640;28;20082;-73
2022/04/14 09:45:20;;;;;;;23.15;20.17;;;;;;;;;;5062325;28;20115;-73
2022/04/14 09:47:50;;;;;;;24.58;22.08;;;;;;;;;;5089685;28;20024;-73
2022/04/14 09:50:27;;;;;;;24.90;20.35;;;;;;;;;;5065225;28;20036;-74
2022/04/14 09:52:59;;;;;;;23.65;20.67;;;;;;;;;;5079468;28;20029;-73
2022/04/14 09:55:25;;;;;;;24.17;20.27;;;;;;;;;;5060267;28;20039;-74
2022/04/14 09:58:10;;;;;;;20.83;18.73;;;;;;;;;;5087518;28;20552;-73
2022/04/14 10:00:43;;;;;;;23.10;19.23;;;;;;;;;;5080985;28;20071;-73
2022/04/14 10:03:16;;;;;;;21.77;19.48;;;;;;;;;;5085942;28;20044;-73
2022/04/14 10:05:43;;;;;;;26.65;20.58;;;;;;;;;;5085200;28;20035;-73
2022/04/14 10:08:09;;;;;;;26.27;20.05;;;;;;;;;;5067119;28;20032;-73
2022/04/14 10:10:39;;;;;;;20.70;18.58;;;;;;;;;;5088069;28;20122;-73
2022/04/14 10:13:07;;;;;;;25.70;19.58;;;;;;;;;;5082302;28;20051;-73
2022/04/14 10:15:41;;;;;;;25.48;20.00;;;;;;;;;;5062128;28;20043;-73
2022/04/14 10:18:12;;;;;;;23.00;20.10;;;;;;;;;;5088776;28;20078;-73
2022/04/14 10:20:39;;;;;;;21.92;18.98;;;;;;;;;;5086211;28;20028;-74
2022/04/14 10:23:07;;;;;;;22.38;19.50;;;;;;;;;;5078323;28;20078;-73
2022/04/14 10:25:37;;;;;;;20.85;18.60;;;;;;;;;;5067383;28;20109;-73
2022/04/14 10:28:06;;;;;;;21.15;19.00;;;;;;;;;;5078042;28;20396;-72
2022/04/14 10:30:32;;;;;;;19.88;17.92;;;;;;;;;;5066508;28;20509;-73
2022/04/14 10:32:58;;;;;;;20.48;18.42;;;;;;;;;;5073341;28;20060;-73
2022/04/14 10:35:25;;;;;;;20.48;18.35;;;;;;;;;;5084643;28;20040;-72
2022/04/14 10:38:00;;;;;;;21.95;19.73;;;;;;;;;;5080446;28;20037;-73
2022/04/14 10:40:25;;;;;;;20.90;18.33;;;;;;;;;;5079869;28;20519;-73
2022/04/14 10:42:54;;;;;;;23.65;20.95;;;;;;;;;;5084452;28;20067;-72
2022/04/14 10:45:22;;;;;;;;;;;;;;;;;;5088152;28;20476;-73
2022/04/14 10:47:55;;;;;;;22.77;19.67;;;;;;;;;;5066253;28;20337;-73
2022/04/14 10:50:30;;;;;;;23.58;19.73;;;;;;;;;;5085620;28;20042;-73
2022/04/14 10:53:09;;;;;;;21.20;18.45;;;;;;;;;;5088023;28;20111;-73
2022/04/14 10:55:46;;;;;;;21.75;19.38;;;;;;;;;;5066024;28;20127;-73
2022/04/14 10:58:50;;;;;;;21.98;18.75;;;;;;;;;;5063350;28;20028;-73
2022/04/14 11:01:15;;;;;;;23.55;20.00;;;;;;;;;;5007626;28;20455;-73
2022/04/14 11:03:47;;;;;;;21.23;17.55;;;;;;;;;;5014853;28;20821;-73
2022/04/14 11:06:40;;;;;;;20.33;17.55;;;;;;;;;;5022828;28;20096;-73
2022/04/14 11:09:06;;;;;;;18.92;17.08;;;;;;;;;;5023737;28;20040;-73
2022/04/14 11:11:59;;;;;;;19.20;17.25;;;;;;;;;;5007435;28;20041;-74
2022/04/14 11:14:25;;;;;;;24.05;19.35;;;;;;;;;;5018495;28;20117;-73
2022/04/14 11:16:50;;;;;;;21.45;19.10;;;;;;;;;;5024611;28;20219;-73
2022/04/14 11:19:19;;;;;;;26.73;19.27;;;;;;;;;;5024346;28;20521;-72
2022/04/14 11:22:01;;;;;;;22.08;19.77;;;;;;;;;;5019523;28;20056;-72
2022/04/14 11:24:52;;;;;;;22.60;20.23;;;;;;;;;;5020394;28;20080;-72
2022/04/14 11:27:28;;;;;;;24.60;19.80;;;;;;;;;;5020900;28;20128;-72
2022/04/14 11:30:03;;;;;;;21.63;19.33;;;;;;;;;;5018694;28;20059;-73
2022/04/14 11:32:42;;;;;;;22.73;19.15;;;;;;;;;;5025102;28;20100;-73
2022/04/14 11:35:15;;;;;;;20.83;17.95;;;;;;;;;;5008246;28;20033;-73
2022/04/14 11:37:42;;;;;;;25.48;19.73;;;;;;;;;;5054323;28;20492;-73
2022/04/14 11:40:21;;;;;;;25.95;21.88;;;;;;;;;;5075160;28;20059;-73
2022/04/14 11:42:52;;;;;;;21.42;17.88;;;;;;;;;;5076037;28;20376;-73
2022/04/14 11:45:25;;;;;;;21.98;19.48;;;;;;;;;;5078612;28;20146;-74
2022/04/14 11:48:00;;;;;;;21.92;19.85;;;;;;;;;;5080692;28;20052;-73
2022/04/14 11:50:27;;;;;;;19.45;17.48;;;;;;;;;;5085773;28;20659;-74
2022/04/14 11:53:03;;;;;;;19.83;17.75;;;;;;;;;;5050171;28;20031;-73
2022/04/14 11:55:36;;;;;;;21.33;18.40;;;;;;;;;;5075586;28;20043;-73
2022/04/14 11:58:07;;;;;;;21.48;19.15;;;;;;;;;;5050997;28;20047;-73
2022/04/14 12:00:46;;;;;;;19.45;17.40;;;;;;;;;;5088081;28;20416;-73
2022/04/14 12:03:13;;;;;;;18.08;16.33;;;;;;;;;;5080356;28;20509;-73
2022/04/14 12:05:40;;;;;;;22.23;20.13;;;;;;;;;;5066148;28;20031;-73
2022/04/14 12:08:10;;;;;;;22.50;20.27;;;;;;;;;;5083018;28;20044;-72
2022/04/14 12:10:37;;;;;;;28.30;20.05;;;;;;;;;;5087228;28;20028;-73
2022/04/14 12:13:09;;;;;;;21.50;19.27;;;;;;;;;;5082979;28;20042;-73
2022/04/14 12:15:36;;;;;;;23.50;19.98;;;;;;;;;;5079417;28;20047;-73
2022/04/14 12:18:06;;;;;;;22.55;20.08;;;;;;;;;;5072121;28;20039;-74
2022/04/14 12:20:40;;;;;;;22.85;20.30;;;;;;;;;;5060423;28;20036;-74
2022/04/14 12:23:13;;;;;;;28.05;21.58;;;;;;;;;;5083635;28;20024;-74
2022/04/14 12:25:39;;;;;;;22.38;19.65;;;;;;;;;;5083340;28;20032;-74
2022/04/14 12:28:06;;;;;;;21.45;19.25;;;;;;;;;;5065761;28;20414;-74
2022/04/14 12:30:32;;;;;;;23.77;21.48;;;;;;;;;;5053713;28;20037;-74
2022/04/14 12:33:05;;;;;;;24.92;20.15;;;;;;;;;;5065981;28;20036;-74
2022/04/14 12:35:36;;;;;;;23.25;21.02;;;;;;;;;;5066483;28;20043;-73
2022/04/14 12:38:14;;;;;;;24.75;21.88;;;;;;;;;;5066730;28;20498;-73
2022/04/14 12:40:55;;;;;;;24.90;22.13;;;;;;;;;;5074079;28;20036;-73
2022/04/14 12:43:33;;;;;;;23.17;20.50;;;;;;;;;;5079883;28;20123;-73
2022/04/14 12:46:00;;;;;;;22.27;20.00;;;;;;;;;;5067944;28;20056;-73
2022/04/14 12:48:28;;;;;;;23.40;21.23;;;;;;;;;;5081318;28;20417;-73
2022/04/14 12:50:57;;;;;;;21.77;18.52;;;;;;;;;;5079382;28;20101;-73
2022/04/14 12:53:27;;;;;;;22.70;20.15;;;;;;;;;;5086768;28;20044;-74
2022/04/14 12:56:12;;;;;;;21.50;19.25;;;;;;;;;;5067476;28;20028;-74
2022/04/14 12:58:39;;;;;;;20.48;17.67;;;;;;;;;;5059618;28;20037;-74
2022/04/14 13:01:09;;;;;;;20.85;18.67;;;;;;;;;;5071328;28;20501;-74
2022/04/14 13:03:51;;;;;;;22.35;20.05;;;;;;;;;;5089012;28;20047;-73
2022/04/14 13:06:18;;;;;;;21.08;19.05;;;;;;;;;;5080564;28;20572;-74
2022/04/14 13:08:47;;;;;;;24.88;19.67;;;;;;;;;;5075106;28;20032;-73
2022/04/14 13:11:48;;;;;;;21.52;19.25;;;;;;;;;;5081422;28;20035;-73
2022/04/14 13:14:18;;;;;;;21.95;19.75;;;;;;;;;;5084368;28;20032;-73
2022/04/14 13:16:45;;;;;;;21.80;18.60;;;;;;;;;;5055168;28;20047;-74
2022/04/14 13:19:11;;;;;;;19.80;17.17;;;;;;;;;;5059239;28;20028;-74
2022/04/14 13:21:36;;;;;;;25.00;18.75;;;;;;;;;;5080368;28;20036;-74
2022/04/14 13:24:02;;;;;;;19.33;17.42;;;;;;;;;;5078178;28;20028;-74
2022/04/14 13:26:28;;;;;;;21.73;19.67;;;;;;;;;;5061273;28;20086;-74
2022/04/14 13:28:54;;;;;;;21.63;18.15;;;;;;;;;;5069317;28;20040;-74
2022/04/14 13:31:19;;;;;;;21.17;19.00;;;;;;;;;;5088006;28;20040;-74
2022/04/14 13:33:50;;;;;;;22.05;19.73;;;;;;;;;;5080486;28;20040;-74
2022/04/14 13:36:16;;;;;;;20.58;18.50;;;;;;;;;;5064190;28;20061;-74
2022/04/14 13:38:41;;;;;;;19.50;17.63;;;;;;;;;;5070385;28;20024;-74
2022/04/14 13:41:07;;;;;;;18.88;17.08;;;;;;;;;;5080640;28;20044;-74
2022/04/14 13:43:33;;;;;;;24.23;18.58;;;;;;;;;;5060806;28;20040;-74
2022/04/14 13:45:58;;;;;;;19.13;17.25;;;;;;;;;;5087465;28;20032;-74
2022/04/14 13:48:24;;;;;;;21.23;19.17;;;;;;;;;;5081002;28;20039;-74
2022/04/14 13:50:49;;;;;;;23.65;19.02;;;;;;;;;;5077610;28;20079;-74
2022/04/14 13:53:17;;;;;;;22.75;19.67;;;;;;;;;;5085616;28;20040;-74
2022/04/14 13:55:43;;;;;;;23.95;21.02;;;;;;;;;;5071352;28;20095;-74
2022/04/14 13:58:09;;;;;;;25.67;20.45;;;;;;;;;;5071935;28;20482;-74
2022/04/14 14:00:35;;;;;;;21.17;19.00;;;;;;;;;;5078917;28;20110;-73
2022/04/14 14:03:02;;;;;;;23.67;19.42;;;;;;;;;;5069464;28;20040;-74
2022/04/14 14:05:28;;;;;;;25.52;20.25;;;;;;;;;;5067522;28;20063;-74
2022/04/14 14:07:53;;;;;;;21.27;19.25;;;;;;;;;;5076729;28;20083;-74
2022/04/14 14:10:19;;;;;;;22.73;20.33;;;;;;;;;;5074793;28;20036;-74
2022/04/14 14:12:45;;;;;;;22.30;20.02;;;;;;;;;;5072877;28;20036;-74
2022/04/14 14:15:10;;;;;;;21.33;18.95;;;;;;;;;;5050156;28;20095;-74
2022/04/14 14:17:40;;;;;;;21.30;19.05;;;;;;;;;;5069743;28;20476;-74
2022/04/14 14:20:08;;;;;;;23.27;20.80;;;;;;;;;;5077597;28;20078;-74
2022/04/14 14:22:33;;;;;;;26.55;23.73;;;;;;;;;;5070545;28;20131;-74
2022/04/14 14:24:59;;;;;;;26.60;23.75;;;;;;;;;;5071023;28;20550;-74